N1068X KILM-KCHS
Flight info
| Callsign | N1068X |
|---|---|
| Flight time | 0h 59m |
| Altitude | 8000 |
| Route | KILM CRE KCHS |
| Aircraft | M20P/L-VGD/C |
Departure
| Time | 2026-05-04 00:54 |
|---|---|
| Airport | Wilmington International Airport (KILM) |
Arrival
| Time | 2026-05-04 01:53 |
|---|---|
| Airport | Charleston International Airport (KCHS) |
| Time | Latitude | Longitude | Altitude | Speed | Heading |
|---|---|---|---|---|---|
| 2026-05-04 00:34 | 34.27163 | -77.90817 | 29 ft | 0 kts | 66° |
| 2026-05-04 00:45 | 34.27163 | -77.90816 | 29 ft | 0 kts | 66° |
| 2026-05-04 00:46 | 34.27164 | -77.90813 | 29 ft | 0 kts | 78° |
| 2026-05-04 00:46 | 34.27142 | -77.90791 | 28 ft | 6 kts | 143° |
| 2026-05-04 00:46 | 34.27118 | -77.90736 | 28 ft | 10 kts | 112° |
| 2026-05-04 00:46 | 34.27076 | -77.90678 | 28 ft | 8 kts | 118° |
| 2026-05-04 00:47 | 34.27034 | -77.90631 | 28 ft | 10 kts | 178° |
| 2026-05-04 00:47 | 34.26963 | -77.90598 | 27 ft | 11 kts | 161° |
| 2026-05-04 00:47 | 34.26893 | -77.90565 | 27 ft | 10 kts | 160° |
| 2026-05-04 00:47 | 34.26822 | -77.90529 | 27 ft | 12 kts | 133° |
| 2026-05-04 00:48 | 34.26837 | -77.90452 | 26 ft | 9 kts | 52° |
| 2026-05-04 00:48 | 34.26892 | -77.90372 | 25 ft | 17 kts | 51° |
| 2026-05-04 00:48 | 34.26969 | -77.90252 | 26 ft | 18 kts | 50° |
| 2026-05-04 00:48 | 34.27056 | -77.90126 | 26 ft | 22 kts | 50° |
| 2026-05-04 00:49 | 34.27153 | -77.89980 | 26 ft | 23 kts | 50° |
| 2026-05-04 00:49 | 34.27264 | -77.89827 | 26 ft | 25 kts | 49° |
| 2026-05-04 00:49 | 34.27386 | -77.89683 | 25 ft | 24 kts | 9° |
| 2026-05-04 00:49 | 34.27516 | -77.89583 | 24 ft | 22 kts | 48° |
| 2026-05-04 00:50 | 34.27618 | -77.89443 | 24 ft | 22 kts | 50° |
| 2026-05-04 00:50 | 34.27694 | -77.89338 | 24 ft | 14 kts | 49° |
| 2026-05-04 00:50 | 34.27761 | -77.89241 | 23 ft | 16 kts | 74° |
| 2026-05-04 00:50 | 34.27709 | -77.89145 | 23 ft | 14 kts | 138° |
| 2026-05-04 00:51 | 34.27703 | -77.89135 | 23 ft | 0 kts | 117° |
| 2026-05-04 00:52 | 34.27702 | -77.89135 | 23 ft | 1 kts | 116° |
| 2026-05-04 00:52 | 34.27684 | -77.89108 | 22 ft | 9 kts | 144° |
| 2026-05-04 00:52 | 34.27622 | -77.89093 | 22 ft | 13 kts | 235° |
| 2026-05-04 00:53 | 34.27544 | -77.89190 | 22 ft | 30 kts | 227° |
| 2026-05-04 00:53 | 34.27299 | -77.89525 | 63 ft | 67 kts | 228° |
| 2026-05-04 00:53 | 34.26958 | -77.89962 | 295 ft | 72 kts | 226° |
| 2026-05-04 00:53 | 34.26616 | -77.90425 | 504 ft | 77 kts | 231° |
| 2026-05-04 00:54 | 34.26254 | -77.90954 | 726 ft | 79 kts | 228° |
| 2026-05-04 00:54 | 34.25882 | -77.91394 | 1024 ft | 77 kts | 219° |
| 2026-05-04 00:54 | 34.25507 | -77.91893 | 1316 ft | 79 kts | 227° |
| 2026-05-04 00:54 | 34.25094 | -77.92230 | 1660 ft | 75 kts | 202° |
| 2026-05-04 00:55 | 34.24586 | -77.92566 | 1857 ft | 85 kts | 221° |
| 2026-05-04 00:55 | 34.24215 | -77.93036 | 2118 ft | 85 kts | 237° |
| 2026-05-04 00:55 | 34.23951 | -77.93704 | 2334 ft | 84 kts | 245° |
| 2026-05-04 00:55 | 34.23677 | -77.94307 | 2578 ft | 86 kts | 236° |
| 2026-05-04 00:56 | 34.23240 | -77.94850 | 2789 ft | 89 kts | 227° |
| 2026-05-04 00:56 | 34.22884 | -77.95439 | 3002 ft | 89 kts | 242° |
| 2026-05-04 00:56 | 34.22550 | -77.96071 | 3228 ft | 87 kts | 237° |
| 2026-05-04 00:56 | 34.22182 | -77.96668 | 3386 ft | 92 kts | 242° |
| 2026-05-04 00:57 | 34.21872 | -77.97320 | 3650 ft | 84 kts | 245° |
| 2026-05-04 00:57 | 34.21598 | -77.97995 | 3806 ft | 93 kts | 244° |
| 2026-05-04 00:57 | 34.21256 | -77.98650 | 3996 ft | 98 kts | 244° |
| 2026-05-04 00:57 | 34.20953 | -77.99401 | 4288 ft | 93 kts | 246° |
| 2026-05-04 00:58 | 34.20610 | -78.00035 | 4565 ft | 94 kts | 240° |
| 2026-05-04 00:58 | 34.20238 | -78.00721 | 4774 ft | 98 kts | 243° |
| 2026-05-04 00:58 | 34.19892 | -78.01406 | 5066 ft | 95 kts | 241° |
| 2026-05-04 00:58 | 34.19505 | -78.02084 | 5260 ft | 101 kts | 239° |
| 2026-05-04 00:59 | 34.19105 | -78.02765 | 5522 ft | 98 kts | 241° |
| 2026-05-04 00:59 | 34.18716 | -78.03458 | 5722 ft | 102 kts | 242° |
| 2026-05-04 00:59 | 34.18275 | -78.04128 | 5992 ft | 102 kts | 232° |
| 2026-05-04 00:59 | 34.17708 | -78.04690 | 6146 ft | 109 kts | 234° |
| 2026-05-04 01:00 | 34.17286 | -78.05437 | 6422 ft | 101 kts | 245° |
| 2026-05-04 01:00 | 34.16898 | -78.06112 | 6656 ft | 103 kts | 242° |
| 2026-05-04 01:00 | 34.16395 | -78.06809 | 6790 ft | 110 kts | 236° |
| 2026-05-04 01:00 | 34.15920 | -78.07466 | 7070 ft | 102 kts | 239° |
| 2026-05-04 01:01 | 34.15461 | -78.08174 | 7138 ft | 111 kts | 250° |
| 2026-05-04 01:01 | 34.15120 | -78.08947 | 7464 ft | 98 kts | 246° |
| 2026-05-04 01:01 | 34.14744 | -78.09625 | 7669 ft | 102 kts | 248° |
| 2026-05-04 01:01 | 34.14450 | -78.10418 | 7876 ft | 101 kts | 256° |
| 2026-05-04 01:02 | 34.14160 | -78.11167 | 8076 ft | 105 kts | 255° |
| 2026-05-04 01:02 | 34.13835 | -78.12036 | 8096 ft | 121 kts | 250° |
| 2026-05-04 01:02 | 34.13445 | -78.12990 | 8074 ft | 135 kts | 250° |
| 2026-05-04 01:02 | 34.13023 | -78.14028 | 8106 ft | 140 kts | 247° |
| 2026-05-04 01:03 | 34.12494 | -78.15049 | 8037 ft | 151 kts | 244° |
| 2026-05-04 01:03 | 34.11926 | -78.16133 | 8048 ft | 153 kts | 244° |
| 2026-05-04 01:03 | 34.11356 | -78.17223 | 8055 ft | 154 kts | 244° |
| 2026-05-04 01:03 | 34.10774 | -78.18321 | 8053 ft | 156 kts | 243° |
| 2026-05-04 01:04 | 34.10385 | -78.19048 | 8053 ft | 156 kts | 243° |
| 2026-05-04 01:04 | 34.09794 | -78.20146 | 8055 ft | 156 kts | 243° |
| 2026-05-04 01:04 | 34.09007 | -78.21605 | 8055 ft | 157 kts | 243° |
| 2026-05-04 01:04 | 34.08411 | -78.22710 | 8052 ft | 157 kts | 243° |
| 2026-05-04 01:05 | 34.07815 | -78.23814 | 8052 ft | 157 kts | 243° |
| 2026-05-04 01:05 | 34.07412 | -78.24561 | 8061 ft | 157 kts | 243° |
| 2026-05-04 01:05 | 34.06815 | -78.25666 | 8055 ft | 157 kts | 243° |
| 2026-05-04 01:05 | 34.06224 | -78.26760 | 8056 ft | 157 kts | 243° |
| 2026-05-04 01:06 | 34.05626 | -78.27867 | 8058 ft | 158 kts | 243° |
| 2026-05-04 01:06 | 34.05027 | -78.28975 | 8055 ft | 157 kts | 243° |
| 2026-05-04 01:06 | 34.04430 | -78.30080 | 8056 ft | 158 kts | 243° |
| 2026-05-04 01:06 | 34.03830 | -78.31189 | 8053 ft | 158 kts | 243° |
| 2026-05-04 01:07 | 34.03231 | -78.32298 | 8054 ft | 158 kts | 243° |
| 2026-05-04 01:07 | 34.02631 | -78.33404 | 8052 ft | 158 kts | 243° |
| 2026-05-04 01:07 | 34.02029 | -78.34518 | 8053 ft | 160 kts | 243° |
| 2026-05-04 01:07 | 34.01413 | -78.35658 | 8056 ft | 164 kts | 243° |
| 2026-05-04 01:08 | 34.00792 | -78.36805 | 8062 ft | 167 kts | 243° |
| 2026-05-04 01:08 | 34.00153 | -78.37982 | 8065 ft | 168 kts | 243° |
| 2026-05-04 01:08 | 33.99510 | -78.39169 | 8066 ft | 170 kts | 243° |
| 2026-05-04 01:08 | 33.98861 | -78.40365 | 8067 ft | 170 kts | 242° |
| 2026-05-04 01:09 | 33.98210 | -78.41564 | 8066 ft | 171 kts | 242° |
| 2026-05-04 01:09 | 33.97559 | -78.42764 | 8066 ft | 171 kts | 242° |
| 2026-05-04 01:09 | 33.96906 | -78.43968 | 8062 ft | 172 kts | 242° |
| 2026-05-04 01:09 | 33.96252 | -78.45173 | 8065 ft | 172 kts | 242° |
| 2026-05-04 01:10 | 33.95597 | -78.46379 | 8064 ft | 172 kts | 242° |
| 2026-05-04 01:10 | 33.94940 | -78.47589 | 8063 ft | 173 kts | 242° |
| 2026-05-04 01:10 | 33.94281 | -78.48801 | 8062 ft | 173 kts | 242° |
| 2026-05-04 01:10 | 33.93630 | -78.49998 | 8065 ft | 173 kts | 242° |
| 2026-05-04 01:11 | 33.92972 | -78.51209 | 8066 ft | 173 kts | 242° |
| 2026-05-04 01:11 | 33.92313 | -78.52420 | 8067 ft | 173 kts | 242° |
| 2026-05-04 01:11 | 33.91652 | -78.53634 | 8070 ft | 173 kts | 242° |
| 2026-05-04 01:11 | 33.90991 | -78.54848 | 8069 ft | 173 kts | 242° |
| 2026-05-04 01:12 | 33.90329 | -78.56064 | 8072 ft | 174 kts | 242° |
| 2026-05-04 01:12 | 33.89667 | -78.57279 | 8074 ft | 174 kts | 242° |
| 2026-05-04 01:12 | 33.89004 | -78.58496 | 8071 ft | 173 kts | 242° |
| 2026-05-04 01:12 | 33.88344 | -78.59708 | 8071 ft | 173 kts | 242° |
| 2026-05-04 01:13 | 33.87680 | -78.60924 | 8072 ft | 173 kts | 242° |
| 2026-05-04 01:13 | 33.87028 | -78.62119 | 8078 ft | 173 kts | 242° |
| 2026-05-04 01:13 | 33.86366 | -78.63333 | 8077 ft | 173 kts | 242° |
| 2026-05-04 01:13 | 33.85704 | -78.64547 | 8074 ft | 173 kts | 242° |
| 2026-05-04 01:14 | 33.85040 | -78.65762 | 8077 ft | 174 kts | 242° |
| 2026-05-04 01:14 | 33.84378 | -78.66974 | 8076 ft | 174 kts | 242° |
| 2026-05-04 01:14 | 33.83714 | -78.68190 | 8076 ft | 174 kts | 242° |
| 2026-05-04 01:14 | 33.83050 | -78.69404 | 8075 ft | 174 kts | 242° |
| 2026-05-04 01:15 | 33.82387 | -78.70616 | 8073 ft | 174 kts | 242° |
| 2026-05-04 01:15 | 33.81722 | -78.71832 | 8075 ft | 174 kts | 242° |
| 2026-05-04 01:15 | 33.81012 | -78.73008 | 8071 ft | 175 kts | 235° |
| 2026-05-04 01:15 | 33.80231 | -78.74132 | 8073 ft | 175 kts | 236° |
| 2026-05-04 01:16 | 33.79468 | -78.75249 | 8070 ft | 175 kts | 236° |
| 2026-05-04 01:16 | 33.78686 | -78.76398 | 8071 ft | 176 kts | 236° |
| 2026-05-04 01:16 | 33.77909 | -78.77536 | 8070 ft | 176 kts | 236° |
| 2026-05-04 01:16 | 33.77143 | -78.78656 | 8071 ft | 176 kts | 236° |
| 2026-05-04 01:17 | 33.76366 | -78.79792 | 8069 ft | 176 kts | 236° |
| 2026-05-04 01:17 | 33.75588 | -78.80927 | 8067 ft | 176 kts | 236° |
| 2026-05-04 01:17 | 33.74813 | -78.82059 | 8071 ft | 175 kts | 236° |
| 2026-05-04 01:17 | 33.74037 | -78.83193 | 8084 ft | 175 kts | 236° |
| 2026-05-04 01:18 | 33.73261 | -78.84325 | 8087 ft | 175 kts | 235° |
| 2026-05-04 01:18 | 33.72485 | -78.85458 | 8085 ft | 175 kts | 236° |
| 2026-05-04 01:18 | 33.71709 | -78.86590 | 8086 ft | 176 kts | 235° |
| 2026-05-04 01:18 | 33.70931 | -78.87725 | 8085 ft | 176 kts | 235° |
| 2026-05-04 01:19 | 33.70152 | -78.88860 | 8085 ft | 176 kts | 235° |
| 2026-05-04 01:19 | 33.69373 | -78.89995 | 8084 ft | 176 kts | 235° |
| 2026-05-04 01:19 | 33.68597 | -78.91127 | 8085 ft | 176 kts | 235° |
| 2026-05-04 01:19 | 33.67828 | -78.92247 | 8085 ft | 176 kts | 235° |
| 2026-05-04 01:20 | 33.67048 | -78.93383 | 8084 ft | 176 kts | 235° |
| 2026-05-04 01:20 | 33.66268 | -78.94518 | 8083 ft | 176 kts | 235° |
| 2026-05-04 01:20 | 33.65489 | -78.95652 | 8084 ft | 176 kts | 235° |
| 2026-05-04 01:20 | 33.64706 | -78.96790 | 8084 ft | 176 kts | 235° |
| 2026-05-04 01:21 | 33.63925 | -78.97927 | 8081 ft | 176 kts | 235° |
| 2026-05-04 01:21 | 33.63143 | -78.99065 | 8082 ft | 177 kts | 235° |
| 2026-05-04 01:21 | 33.62358 | -79.00204 | 8080 ft | 177 kts | 235° |
| 2026-05-04 01:21 | 33.61576 | -79.01340 | 8083 ft | 177 kts | 235° |
| 2026-05-04 01:22 | 33.60803 | -79.02463 | 8081 ft | 177 kts | 235° |
| 2026-05-04 01:22 | 33.60020 | -79.03600 | 8079 ft | 177 kts | 235° |
| 2026-05-04 01:22 | 33.59236 | -79.04738 | 8077 ft | 177 kts | 235° |
| 2026-05-04 01:22 | 33.58451 | -79.05877 | 8073 ft | 177 kts | 235° |
| 2026-05-04 01:23 | 33.57666 | -79.07015 | 8076 ft | 177 kts | 235° |
| 2026-05-04 01:23 | 33.56882 | -79.08153 | 8073 ft | 177 kts | 235° |
| 2026-05-04 01:23 | 33.56096 | -79.09292 | 8072 ft | 177 kts | 235° |
| 2026-05-04 01:23 | 33.55311 | -79.10430 | 8074 ft | 177 kts | 235° |
| 2026-05-04 01:24 | 33.54525 | -79.11568 | 8070 ft | 177 kts | 234° |
| 2026-05-04 01:24 | 33.53739 | -79.12707 | 8067 ft | 177 kts | 234° |
| 2026-05-04 01:24 | 33.52951 | -79.13847 | 8069 ft | 177 kts | 234° |
| 2026-05-04 01:24 | 33.52174 | -79.14973 | 8067 ft | 177 kts | 234° |
| 2026-05-04 01:25 | 33.51390 | -79.16108 | 8071 ft | 177 kts | 234° |
| 2026-05-04 01:25 | 33.50598 | -79.17253 | 8074 ft | 177 kts | 234° |
| 2026-05-04 01:25 | 33.49809 | -79.18394 | 8072 ft | 178 kts | 234° |
| 2026-05-04 01:25 | 33.49022 | -79.19532 | 8072 ft | 178 kts | 234° |
| 2026-05-04 01:26 | 33.48235 | -79.20669 | 8073 ft | 177 kts | 234° |
| 2026-05-04 01:26 | 33.47447 | -79.21807 | 8075 ft | 177 kts | 234° |
| 2026-05-04 01:26 | 33.46661 | -79.22943 | 8077 ft | 177 kts | 234° |
| 2026-05-04 01:26 | 33.45875 | -79.24077 | 8078 ft | 177 kts | 234° |
| 2026-05-04 01:27 | 33.45089 | -79.25211 | 8076 ft | 177 kts | 234° |
| 2026-05-04 01:27 | 33.44304 | -79.26345 | 8079 ft | 177 kts | 234° |
| 2026-05-04 01:27 | 33.43518 | -79.27477 | 8080 ft | 177 kts | 234° |
| 2026-05-04 01:27 | 33.42743 | -79.28595 | 8081 ft | 177 kts | 234° |
| 2026-05-04 01:28 | 33.41958 | -79.29727 | 8081 ft | 177 kts | 234° |
| 2026-05-04 01:28 | 33.41172 | -79.30860 | 8081 ft | 177 kts | 234° |
| 2026-05-04 01:28 | 33.40387 | -79.31990 | 8084 ft | 177 kts | 234° |
| 2026-05-04 01:28 | 33.39601 | -79.33124 | 8082 ft | 177 kts | 234° |
| 2026-05-04 01:29 | 33.38813 | -79.34259 | 8083 ft | 177 kts | 234° |
| 2026-05-04 01:29 | 33.38026 | -79.35391 | 8084 ft | 177 kts | 234° |
| 2026-05-04 01:29 | 33.37270 | -79.36544 | 8077 ft | 174 kts | 244° |
| 2026-05-04 01:29 | 33.36852 | -79.37883 | 8081 ft | 171 kts | 256° |
| 2026-05-04 01:30 | 33.36484 | -79.39242 | 8080 ft | 172 kts | 253° |
| 2026-05-04 01:30 | 33.36056 | -79.40581 | 8084 ft | 173 kts | 252° |
| 2026-05-04 01:30 | 33.35615 | -79.41896 | 8078 ft | 170 kts | 252° |
| 2026-05-04 01:30 | 33.35179 | -79.43193 | 8077 ft | 166 kts | 252° |
| 2026-05-04 01:31 | 33.34753 | -79.44465 | 8076 ft | 163 kts | 252° |
| 2026-05-04 01:31 | 33.34334 | -79.45720 | 8073 ft | 162 kts | 252° |
| 2026-05-04 01:31 | 33.33917 | -79.46968 | 8075 ft | 161 kts | 252° |
| 2026-05-04 01:31 | 33.33503 | -79.48204 | 8071 ft | 160 kts | 252° |
| 2026-05-04 01:32 | 33.33089 | -79.49439 | 8072 ft | 160 kts | 252° |
| 2026-05-04 01:32 | 33.32677 | -79.50670 | 8070 ft | 159 kts | 252° |
| 2026-05-04 01:32 | 33.32264 | -79.51902 | 8071 ft | 159 kts | 252° |
| 2026-05-04 01:32 | 33.31852 | -79.53131 | 8071 ft | 159 kts | 252° |
| 2026-05-04 01:33 | 33.31438 | -79.54364 | 8066 ft | 159 kts | 252° |
| 2026-05-04 01:33 | 33.31022 | -79.55606 | 7951 ft | 162 kts | 252° |
| 2026-05-04 01:33 | 33.30604 | -79.56850 | 7822 ft | 161 kts | 252° |
| 2026-05-04 01:33 | 33.30186 | -79.58096 | 7699 ft | 161 kts | 251° |
| 2026-05-04 01:34 | 33.29767 | -79.59341 | 7567 ft | 161 kts | 251° |
| 2026-05-04 01:34 | 33.29349 | -79.60586 | 7449 ft | 162 kts | 251° |
| 2026-05-04 01:34 | 33.28929 | -79.61834 | 7325 ft | 162 kts | 251° |
| 2026-05-04 01:34 | 33.28509 | -79.63084 | 7202 ft | 162 kts | 251° |
| 2026-05-04 01:35 | 33.28087 | -79.64337 | 7078 ft | 162 kts | 251° |
| 2026-05-04 01:35 | 33.27666 | -79.65590 | 6956 ft | 162 kts | 251° |
| 2026-05-04 01:35 | 33.27249 | -79.66827 | 6838 ft | 163 kts | 251° |
| 2026-05-04 01:35 | 33.26825 | -79.68085 | 6714 ft | 162 kts | 251° |
| 2026-05-04 01:36 | 33.26406 | -79.69327 | 6592 ft | 161 kts | 251° |
| 2026-05-04 01:36 | 33.25989 | -79.70564 | 6464 ft | 160 kts | 251° |
| 2026-05-04 01:36 | 33.25574 | -79.71794 | 6337 ft | 159 kts | 251° |
| 2026-05-04 01:36 | 33.25162 | -79.73016 | 6205 ft | 158 kts | 250° |
| 2026-05-04 01:37 | 33.24751 | -79.74233 | 6079 ft | 157 kts | 250° |
| 2026-05-04 01:37 | 33.24344 | -79.75438 | 5950 ft | 156 kts | 250° |
| 2026-05-04 01:37 | 33.23938 | -79.76640 | 5821 ft | 156 kts | 250° |
| 2026-05-04 01:37 | 33.23534 | -79.77837 | 5693 ft | 155 kts | 250° |
| 2026-05-04 01:38 | 33.23130 | -79.79032 | 5568 ft | 155 kts | 250° |
| 2026-05-04 01:38 | 33.22727 | -79.80224 | 5442 ft | 155 kts | 250° |
| 2026-05-04 01:38 | 33.22325 | -79.81413 | 5320 ft | 154 kts | 250° |
| 2026-05-04 01:38 | 33.21927 | -79.82588 | 5197 ft | 154 kts | 249° |
| 2026-05-04 01:39 | 33.21525 | -79.83776 | 5071 ft | 154 kts | 249° |
| 2026-05-04 01:39 | 33.21122 | -79.84964 | 4949 ft | 155 kts | 249° |
| 2026-05-04 01:39 | 33.20720 | -79.86151 | 4825 ft | 154 kts | 249° |
| 2026-05-04 01:39 | 33.20312 | -79.87354 | 4691 ft | 154 kts | 249° |
| 2026-05-04 01:40 | 33.19911 | -79.88540 | 4565 ft | 154 kts | 249° |
| 2026-05-04 01:40 | 33.19509 | -79.89724 | 4433 ft | 154 kts | 249° |
| 2026-05-04 01:40 | 33.19106 | -79.90912 | 4312 ft | 153 kts | 249° |
| 2026-05-04 01:40 | 33.18711 | -79.92076 | 4193 ft | 153 kts | 249° |
| 2026-05-04 01:41 | 33.18311 | -79.93254 | 4060 ft | 153 kts | 249° |
| 2026-05-04 01:41 | 33.17911 | -79.94430 | 3934 ft | 153 kts | 249° |
| 2026-05-04 01:41 | 33.17511 | -79.95608 | 3812 ft | 153 kts | 249° |
| 2026-05-04 01:41 | 33.17109 | -79.96789 | 3683 ft | 153 kts | 249° |
| 2026-05-04 01:42 | 33.16707 | -79.97971 | 3566 ft | 153 kts | 249° |
| 2026-05-04 01:42 | 33.16305 | -79.99154 | 3440 ft | 154 kts | 249° |
| 2026-05-04 01:42 | 33.15900 | -80.00344 | 3311 ft | 155 kts | 249° |
| 2026-05-04 01:42 | 33.15501 | -80.01518 | 3186 ft | 155 kts | 248° |
| 2026-05-04 01:43 | 33.15095 | -80.02711 | 3070 ft | 155 kts | 248° |
| 2026-05-04 01:43 | 33.14684 | -80.03861 | 3063 ft | 148 kts | 242° |
| 2026-05-04 01:43 | 33.14124 | -80.04870 | 3061 ft | 144 kts | 237° |
| 2026-05-04 01:43 | 33.13567 | -80.05856 | 3056 ft | 142 kts | 237° |
| 2026-05-04 01:44 | 33.13022 | -80.06829 | 3053 ft | 140 kts | 237° |
| 2026-05-04 01:44 | 33.12488 | -80.07787 | 3056 ft | 136 kts | 237° |
| 2026-05-04 01:44 | 33.11977 | -80.08699 | 3050 ft | 130 kts | 237° |
| 2026-05-04 01:44 | 33.11485 | -80.09579 | 3054 ft | 125 kts | 237° |
| 2026-05-04 01:45 | 33.11008 | -80.10431 | 3053 ft | 121 kts | 237° |
| 2026-05-04 01:45 | 33.10543 | -80.11262 | 3049 ft | 120 kts | 237° |
| 2026-05-04 01:45 | 33.09629 | -80.12893 | 3051 ft | 118 kts | 237° |
| 2026-05-04 01:46 | 33.09179 | -80.13693 | 3049 ft | 118 kts | 237° |
| 2026-05-04 01:46 | 33.08698 | -80.14496 | 3029 ft | 118 kts | 235° |
| 2026-05-04 01:46 | 33.08214 | -80.15285 | 3053 ft | 117 kts | 236° |
| 2026-05-04 01:46 | 33.07698 | -80.16039 | 3013 ft | 121 kts | 219° |
| 2026-05-04 01:47 | 33.06854 | -80.16316 | 2876 ft | 133 kts | 180° |
| 2026-05-04 01:47 | 33.05973 | -80.15930 | 2747 ft | 141 kts | 149° |
| 2026-05-04 01:47 | 33.05172 | -80.15268 | 2672 ft | 140 kts | 150° |
| 2026-05-04 01:47 | 33.04343 | -80.14638 | 2505 ft | 142 kts | 151° |
| 2026-05-04 01:48 | 33.03505 | -80.14028 | 2350 ft | 140 kts | 153° |
| 2026-05-04 01:48 | 33.02684 | -80.13429 | 2243 ft | 137 kts | 151° |
| 2026-05-04 01:48 | 33.01888 | -80.12822 | 2122 ft | 135 kts | 149° |
| 2026-05-04 01:48 | 33.01100 | -80.12242 | 2029 ft | 132 kts | 153° |
| 2026-05-04 01:49 | 33.00346 | -80.11633 | 1950 ft | 128 kts | 148° |
| 2026-05-04 01:49 | 32.99676 | -80.11056 | 1926 ft | 110 kts | 149° |
| 2026-05-04 01:49 | 32.99097 | -80.10555 | 1745 ft | 102 kts | 149° |
| 2026-05-04 01:49 | 32.98526 | -80.10016 | 1463 ft | 101 kts | 150° |
| 2026-05-04 01:50 | 32.97967 | -80.09582 | 1380 ft | 91 kts | 152° |
| 2026-05-04 01:50 | 32.97408 | -80.09268 | 1282 ft | 86 kts | 161° |
| 2026-05-04 01:50 | 32.96893 | -80.08956 | 1236 ft | 83 kts | 156° |
| 2026-05-04 01:50 | 32.96373 | -80.08624 | 1116 ft | 85 kts | 155° |
| 2026-05-04 01:51 | 32.95864 | -80.08289 | 1033 ft | 82 kts | 155° |
| 2026-05-04 01:51 | 32.95405 | -80.07883 | 936 ft | 84 kts | 145° |
| 2026-05-04 01:51 | 32.94921 | -80.07498 | 831 ft | 85 kts | 154° |
| 2026-05-04 01:51 | 32.94398 | -80.07162 | 738 ft | 86 kts | 150° |
| 2026-05-04 01:52 | 32.93902 | -80.06756 | 641 ft | 88 kts | 150° |
| 2026-05-04 01:52 | 32.93383 | -80.06385 | 582 ft | 86 kts | 152° |
| 2026-05-04 01:52 | 32.93050 | -80.06117 | 506 ft | 89 kts | 147° |
| 2026-05-04 01:52 | 32.92521 | -80.05717 | 375 ft | 90 kts | 152° |
| 2026-05-04 01:53 | 32.91988 | -80.05324 | 298 ft | 90 kts | 149° |
| 2026-05-04 01:53 | 32.91530 | -80.04968 | 216 ft | 67 kts | 150° |
| 2026-05-04 01:53 | 32.91158 | -80.04697 | 60 ft | 59 kts | 149° |
| 2026-05-04 01:53 | 32.90865 | -80.04479 | 47 ft | 42 kts | 147° |
| 2026-05-04 01:54 | 32.90640 | -80.04309 | 41 ft | 34 kts | 147° |
| 2026-05-04 01:54 | 32.90475 | -80.04183 | 39 ft | 13 kts | 147° |
| 2026-05-04 01:54 | 32.90458 | -80.04173 | 39 ft | 9 kts | 169° |
| 2026-05-04 01:54 | 32.90414 | -80.04119 | 40 ft | 10 kts | 95° |
| 2026-05-04 01:55 | 32.90447 | -80.04038 | 43 ft | 0 kts | 51° |
| 2026-05-04 01:56 | 32.90452 | -80.04031 | 43 ft | 6 kts | 56° |
| 2026-05-04 01:57 | 32.90496 | -80.03946 | 45 ft | 15 kts | 86° |
| 2026-05-04 01:57 | 32.90431 | -80.03862 | 46 ft | 15 kts | 141° |
| 2026-05-04 01:57 | 32.90348 | -80.03767 | 47 ft | 18 kts | 141° |
| 2026-05-04 01:57 | 32.90288 | -80.03709 | 48 ft | 9 kts | 131° |
| 2026-05-04 01:58 | 32.90219 | -80.03636 | 48 ft | 19 kts | 143° |
| 2026-05-04 01:58 | 32.90091 | -80.03570 | 43 ft | 21 kts | 166° |
| 2026-05-04 01:58 | 32.89981 | -80.03567 | 41 ft | 12 kts | 179° |
| 2026-05-04 01:58 | 32.89896 | -80.03538 | 39 ft | 15 kts | 148° |
| 2026-05-04 01:59 | 32.89796 | -80.03456 | 37 ft | 19 kts | 134° |
| 2026-05-04 01:59 | 32.89800 | -80.03369 | 39 ft | 12 kts | 20° |
| 2026-05-04 01:59 | 32.89852 | -80.03305 | 42 ft | 9 kts | 88° |
| 2026-05-04 01:59 | 32.89862 | -80.03276 | 42 ft | 0 kts | 357° |